sensor_id;sensor_type;location;lat;lon;timestamp;P1;durP1;ratioP1;P2;durP2;ratioP2
48052;SDS011;33824;51.600;5.718;2023-04-26T00:00:19;2.08;;;1.35;;
48052;SDS011;33824;51.600;5.718;2023-04-26T00:03:04;4.95;;;2.15;;
48052;SDS011;33824;51.600;5.718;2023-04-26T00:05:32;4.15;;;2.38;;
48052;SDS011;33824;51.600;5.718;2023-04-26T00:07:59;2.92;;;1.15;;
48052;SDS011;33824;51.600;5.718;2023-04-26T00:10:25;6.68;;;1.83;;
48052;SDS011;33824;51.600;5.718;2023-04-26T00:12:51;3.63;;;1.50;;
48052;SDS011;33824;51.600;5.718;2023-04-26T00:15:17;3.88;;;1.48;;
48052;SDS011;33824;51.600;5.718;2023-04-26T00:17:42;2.33;;;1.48;;
48052;SDS011;33824;51.600;5.718;2023-04-26T00:20:08;4.07;;;1.95;;
48052;SDS011;33824;51.600;5.718;2023-04-26T00:22:37;3.33;;;1.60;;
48052;SDS011;33824;51.600;5.718;2023-04-26T00:25:04;3.75;;;1.65;;
48052;SDS011;33824;51.600;5.718;2023-04-26T00:27:30;5.63;;;2.17;;
48052;SDS011;33824;51.600;5.718;2023-04-26T00:29:56;3.80;;;1.67;;
48052;SDS011;33824;51.600;5.718;2023-04-26T00:32:21;3.90;;;1.55;;
48052;SDS011;33824;51.600;5.718;2023-04-26T00:34:47;1.73;;;1.50;;
48052;SDS011;33824;51.600;5.718;2023-04-26T00:37:13;3.42;;;2.00;;
48052;SDS011;33824;51.600;5.718;2023-04-26T00:39:38;3.85;;;1.80;;
48052;SDS011;33824;51.600;5.718;2023-04-26T00:42:04;4.18;;;1.70;;
48052;SDS011;33824;51.600;5.718;2023-04-26T00:44:30;2.30;;;1.48;;
48052;SDS011;33824;51.600;5.718;2023-04-26T00:46:56;1.92;;;1.40;;
48052;SDS011;33824;51.600;5.718;2023-04-26T00:49:22;3.92;;;2.08;;
48052;SDS011;33824;51.600;5.718;2023-04-26T00:51:52;5.57;;;1.65;;
48052;SDS011;33824;51.600;5.718;2023-04-26T00:54:19;4.57;;;2.42;;
48052;SDS011;33824;51.600;5.718;2023-04-26T00:56:45;4.07;;;2.22;;
48052;SDS011;33824;51.600;5.718;2023-04-26T00:59:11;4.32;;;2.20;;
48052;SDS011;33824;51.600;5.718;2023-04-26T01:01:37;8.02;;;2.83;;
48052;SDS011;33824;51.600;5.718;2023-04-26T01:04:05;4.63;;;2.38;;
48052;SDS011;33824;51.600;5.718;2023-04-26T01:06:32;5.88;;;2.55;;
48052;SDS011;33824;51.600;5.718;2023-04-26T01:09:01;5.20;;;2.08;;
48052;SDS011;33824;51.600;5.718;2023-04-26T01:11:35;3.17;;;2.40;;
48052;SDS011;33824;51.600;5.718;2023-04-26T01:14:02;2.78;;;1.83;;
48052;SDS011;33824;51.600;5.718;2023-04-26T01:16:29;3.72;;;2.05;;
48052;SDS011;33824;51.600;5.718;2023-04-26T01:18:55;4.07;;;2.30;;
48052;SDS011;33824;51.600;5.718;2023-04-26T01:21:22;2.47;;;1.40;;
48052;SDS011;33824;51.600;5.718;2023-04-26T01:23:49;2.72;;;1.83;;
48052;SDS011;33824;51.600;5.718;2023-04-26T01:26:15;2.53;;;1.73;;
48052;SDS011;33824;51.600;5.718;2023-04-26T01:28:41;3.83;;;1.90;;
48052;SDS011;33824;51.600;5.718;2023-04-26T01:31:07;6.50;;;2.40;;
48052;SDS011;33824;51.600;5.718;2023-04-26T01:33:32;3.13;;;1.70;;
48052;SDS011;33824;51.600;5.718;2023-04-26T01:35:58;4.95;;;2.13;;
48052;SDS011;33824;51.600;5.718;2023-04-26T01:38:24;3.70;;;2.20;;
48052;SDS011;33824;51.600;5.718;2023-04-26T01:40:49;5.45;;;2.33;;
48052;SDS011;33824;51.600;5.718;2023-04-26T01:43:15;4.47;;;2.40;;
48052;SDS011;33824;51.600;5.718;2023-04-26T01:45:46;5.10;;;2.03;;
48052;SDS011;33824;51.600;5.718;2023-04-26T01:48:12;6.00;;;1.95;;
48052;SDS011;33824;51.600;5.718;2023-04-26T01:50:38;5.00;;;2.33;;
48052;SDS011;33824;51.600;5.718;2023-04-26T01:53:03;3.83;;;1.65;;
48052;SDS011;33824;51.600;5.718;2023-04-26T01:55:29;6.07;;;1.88;;
48052;SDS011;33824;51.600;5.718;2023-04-26T01:57:55;2.80;;;1.85;;
48052;SDS011;33824;51.600;5.718;2023-04-26T02:00:20;2.67;;;1.95;;
48052;SDS011;33824;51.600;5.718;2023-04-26T02:02:46;4.18;;;1.92;;
48052;SDS011;33824;51.600;5.718;2023-04-26T02:05:11;4.22;;;1.95;;
48052;SDS011;33824;51.600;5.718;2023-04-26T02:07:37;5.07;;;2.15;;
48052;SDS011;33824;51.600;5.718;2023-04-26T02:10:03;6.18;;;2.13;;
48052;SDS011;33824;51.600;5.718;2023-04-26T02:12:29;4.53;;;2.30;;
48052;SDS011;33824;51.600;5.718;2023-04-26T02:14:54;3.45;;;2.13;;
48052;SDS011;33824;51.600;5.718;2023-04-26T02:17:20;3.95;;;2.10;;
48052;SDS011;33824;51.600;5.718;2023-04-26T02:19:46;6.72;;;2.30;;
48052;SDS011;33824;51.600;5.718;2023-04-26T02:22:12;4.43;;;2.30;;
48052;SDS011;33824;51.600;5.718;2023-04-26T02:24:38;4.43;;;2.33;;
48052;SDS011;33824;51.600;5.718;2023-04-26T02:27:04;6.07;;;2.47;;
48052;SDS011;33824;51.600;5.718;2023-04-26T02:29:29;2.75;;;2.10;;
48052;SDS011;33824;51.600;5.718;2023-04-26T02:31:56;4.07;;;2.05;;
48052;SDS011;33824;51.600;5.718;2023-04-26T02:34:22;3.83;;;1.88;;
48052;SDS011;33824;51.600;5.718;2023-04-26T02:36:48;3.35;;;2.05;;
48052;SDS011;33824;51.600;5.718;2023-04-26T02:39:13;3.35;;;2.03;;
48052;SDS011;33824;51.600;5.718;2023-04-26T02:41:39;5.50;;;2.40;;
48052;SDS011;33824;51.600;5.718;2023-04-26T02:44:04;4.13;;;2.00;;
48052;SDS011;33824;51.600;5.718;2023-04-26T02:46:30;4.65;;;2.35;;
48052;SDS011;33824;51.600;5.718;2023-04-26T02:48:55;5.10;;;2.33;;
48052;SDS011;33824;51.600;5.718;2023-04-26T02:51:21;3.53;;;2.03;;
48052;SDS011;33824;51.600;5.718;2023-04-26T02:53:47;3.88;;;1.95;;
48052;SDS011;33824;51.600;5.718;2023-04-26T02:56:12;3.58;;;2.13;;
48052;SDS011;33824;51.600;5.718;2023-04-26T02:58:38;6.78;;;3.15;;
48052;SDS011;33824;51.600;5.718;2023-04-26T03:01:03;3.63;;;2.10;;
48052;SDS011;33824;51.600;5.718;2023-04-26T03:03:29;4.05;;;2.10;;
48052;SDS011;33824;51.600;5.718;2023-04-26T03:05:56;4.38;;;1.92;;
48052;SDS011;33824;51.600;5.718;2023-04-26T03:08:22;6.05;;;2.75;;
48052;SDS011;33824;51.600;5.718;2023-04-26T03:10:48;5.78;;;2.33;;
48052;SDS011;33824;51.600;5.718;2023-04-26T03:13:13;3.35;;;1.98;;
48052;SDS011;33824;51.600;5.718;2023-04-26T03:15:43;3.72;;;1.85;;
48052;SDS011;33824;51.600;5.718;2023-04-26T03:18:10;3.80;;;1.98;;
48052;SDS011;33824;51.600;5.718;2023-04-26T03:20:35;3.40;;;2.03;;
48052;SDS011;33824;51.600;5.718;2023-04-26T03:23:01;3.40;;;1.77;;
48052;SDS011;33824;51.600;5.718;2023-04-26T03:25:26;4.25;;;2.30;;
48052;SDS011;33824;51.600;5.718;2023-04-26T03:27:52;5.63;;;2.42;;
48052;SDS011;33824;51.600;5.718;2023-04-26T03:30:18;5.30;;;2.05;;
48052;SDS011;33824;51.600;5.718;2023-04-26T03:32:43;3.47;;;1.85;;
48052;SDS011;33824;51.600;5.718;2023-04-26T03:35:09;4.07;;;2.28;;
48052;SDS011;33824;51.600;5.718;2023-04-26T03:37:34;3.60;;;2.05;;
48052;SDS011;33824;51.600;5.718;2023-04-26T03:40:05;5.03;;;2.45;;
48052;SDS011;33824;51.600;5.718;2023-04-26T03:42:34;3.17;;;1.80;;
48052;SDS011;33824;51.600;5.718;2023-04-26T03:45:01;4.82;;;2.33;;
48052;SDS011;33824;51.600;5.718;2023-04-26T03:47:28;5.10;;;1.75;;
48052;SDS011;33824;51.600;5.718;2023-04-26T03:49:55;4.28;;;2.47;;
48052;SDS011;33824;51.600;5.718;2023-04-26T03:52:21;2.70;;;1.80;;
48052;SDS011;33824;51.600;5.718;2023-04-26T03:54:46;2.05;;;1.50;;
48052;SDS011;33824;51.600;5.718;2023-04-26T03:57:12;4.15;;;1.90;;
48052;SDS011;33824;51.600;5.718;2023-04-26T03:59:37;3.53;;;2.20;;
48052;SDS011;33824;51.600;5.718;2023-04-26T04:02:03;4.93;;;2.65;;
48052;SDS011;33824;51.600;5.718;2023-04-26T04:04:28;3.47;;;1.95;;
48052;SDS011;33824;51.600;5.718;2023-04-26T04:06:54;2.67;;;1.98;;
48052;SDS011;33824;51.600;5.718;2023-04-26T04:09:20;3.83;;;2.10;;
48052;SDS011;33824;51.600;5.718;2023-04-26T04:11:45;5.95;;;2.30;;
48052;SDS011;33824;51.600;5.718;2023-04-26T04:14:11;2.67;;;1.60;;
48052;SDS011;33824;51.600;5.718;2023-04-26T04:16:36;5.00;;;2.58;;
48052;SDS011;33824;51.600;5.718;2023-04-26T04:19:03;4.00;;;2.28;;
48052;SDS011;33824;51.600;5.718;2023-04-26T04:21:29;3.47;;;2.00;;
48052;SDS011;33824;51.600;5.718;2023-04-26T04:23:54;10.93;;;2.38;;
48052;SDS011;33824;51.600;5.718;2023-04-26T04:26:20;4.75;;;2.10;;
48052;SDS011;33824;51.600;5.718;2023-04-26T04:28:45;6.43;;;2.40;;
48052;SDS011;33824;51.600;5.718;2023-04-26T04:31:11;5.78;;;2.50;;
48052;SDS011;33824;51.600;5.718;2023-04-26T04:33:37;3.22;;;2.03;;
48052;SDS011;33824;51.600;5.718;2023-04-26T04:36:03;3.58;;;1.90;;
48052;SDS011;33824;51.600;5.718;2023-04-26T04:38:31;4.60;;;1.92;;
48052;SDS011;33824;51.600;5.718;2023-04-26T04:40:57;3.97;;;2.30;;
48052;SDS011;33824;51.600;5.718;2023-04-26T04:43:22;4.20;;;2.00;;
48052;SDS011;33824;51.600;5.718;2023-04-26T04:45:48;2.42;;;1.60;;
48052;SDS011;33824;51.600;5.718;2023-04-26T04:48:17;5.40;;;2.03;;
48052;SDS011;33824;51.600;5.718;2023-04-26T04:50:42;5.13;;;2.28;;
48052;SDS011;33824;51.600;5.718;2023-04-26T04:53:08;3.83;;;2.35;;
48052;SDS011;33824;51.600;5.718;2023-04-26T04:55:34;4.30;;;2.20;;
48052;SDS011;33824;51.600;5.718;2023-04-26T04:58:04;4.35;;;2.45;;
48052;SDS011;33824;51.600;5.718;2023-04-26T05:00:29;5.50;;;2.90;;
48052;SDS011;33824;51.600;5.718;2023-04-26T05:02:55;4.20;;;1.98;;
48052;SDS011;33824;51.600;5.718;2023-04-26T05:05:21;4.05;;;2.22;;
48052;SDS011;33824;51.600;5.718;2023-04-26T05:07:47;4.32;;;2.60;;
48052;SDS011;33824;51.600;5.718;2023-04-26T05:10:13;3.75;;;1.95;;
48052;SDS011;33824;51.600;5.718;2023-04-26T05:12:39;3.50;;;1.98;;
48052;SDS011;33824;51.600;5.718;2023-04-26T05:15:05;5.22;;;2.38;;
48052;SDS011;33824;51.600;5.718;2023-04-26T05:17:32;7.07;;;3.13;;
48052;SDS011;33824;51.600;5.718;2023-04-26T05:19:58;4.00;;;2.08;;
48052;SDS011;33824;51.600;5.718;2023-04-26T05:22:25;6.80;;;3.13;;
48052;SDS011;33824;51.600;5.718;2023-04-26T05:24:51;7.97;;;2.92;;
48052;SDS011;33824;51.600;5.718;2023-04-26T05:27:17;3.13;;;2.00;;
48052;SDS011;33824;51.600;5.718;2023-04-26T05:29:42;10.85;;;3.00;;
48052;SDS011;33824;51.600;5.718;2023-04-26T05:32:08;4.15;;;2.45;;
48052;SDS011;33824;51.600;5.718;2023-04-26T05:34:33;5.38;;;2.85;;
48052;SDS011;33824;51.600;5.718;2023-04-26T05:36:59;4.95;;;3.05;;
48052;SDS011;33824;51.600;5.718;2023-04-26T05:39:25;5.57;;;3.10;;
48052;SDS011;33824;51.600;5.718;2023-04-26T05:41:51;6.18;;;2.63;;
48052;SDS011;33824;51.600;5.718;2023-04-26T05:44:16;6.38;;;2.83;;
48052;SDS011;33824;51.600;5.718;2023-04-26T05:46:42;6.97;;;3.13;;
48052;SDS011;33824;51.600;5.718;2023-04-26T05:49:08;6.10;;;2.67;;
48052;SDS011;33824;51.600;5.718;2023-04-26T05:51:36;9.18;;;2.70;;
48052;SDS011;33824;51.600;5.718;2023-04-26T05:54:02;4.63;;;2.35;;
48052;SDS011;33824;51.600;5.718;2023-04-26T05:56:28;3.78;;;2.35;;
48052;SDS011;33824;51.600;5.718;2023-04-26T05:58:53;7.13;;;2.28;;
48052;SDS011;33824;51.600;5.718;2023-04-26T06:01:19;5.95;;;2.50;;
48052;SDS011;33824;51.600;5.718;2023-04-26T06:03:45;9.57;;;3.03;;
48052;SDS011;33824;51.600;5.718;2023-04-26T06:06:10;5.25;;;3.17;;
48052;SDS011;33824;51.600;5.718;2023-04-26T06:08:36;4.72;;;2.58;;
48052;SDS011;33824;51.600;5.718;2023-04-26T06:11:03;8.77;;;2.97;;
48052;SDS011;33824;51.600;5.718;2023-04-26T06:13:28;8.70;;;2.97;;
48052;SDS011;33824;51.600;5.718;2023-04-26T06:15:54;7.00;;;2.42;;
48052;SDS011;33824;51.600;5.718;2023-04-26T06:18:20;5.25;;;2.90;;
48052;SDS011;33824;51.600;5.718;2023-04-26T06:20:45;5.15;;;3.05;;
48052;SDS011;33824;51.600;5.718;2023-04-26T06:23:11;4.65;;;2.83;;
48052;SDS011;33824;51.600;5.718;2023-04-26T06:25:37;6.85;;;2.75;;
48052;SDS011;33824;51.600;5.718;2023-04-26T06:28:04;6.45;;;2.85;;
48052;SDS011;33824;51.600;5.718;2023-04-26T06:30:30;7.38;;;3.08;;
48052;SDS011;33824;51.600;5.718;2023-04-26T06:32:55;3.92;;;2.33;;
48052;SDS011;33824;51.600;5.718;2023-04-26T06:35:23;6.25;;;2.75;;
48052;SDS011;33824;51.600;5.718;2023-04-26T06:37:49;8.07;;;2.90;;
48052;SDS011;33824;51.600;5.718;2023-04-26T06:40:15;6.53;;;3.05;;
48052;SDS011;33824;51.600;5.718;2023-04-26T06:42:40;8.13;;;3.85;;
48052;SDS011;33824;51.600;5.718;2023-04-26T06:45:06;5.57;;;2.92;;
48052;SDS011;33824;51.600;5.718;2023-04-26T06:47:32;6.80;;;3.63;;
48052;SDS011;33824;51.600;5.718;2023-04-26T06:49:59;6.43;;;3.65;;
48052;SDS011;33824;51.600;5.718;2023-04-26T06:52:24;4.90;;;2.20;;
48052;SDS011;33824;51.600;5.718;2023-04-26T06:54:50;4.07;;;2.20;;
48052;SDS011;33824;51.600;5.718;2023-04-26T06:57:16;5.78;;;2.75;;
48052;SDS011;33824;51.600;5.718;2023-04-26T06:59:41;4.32;;;2.50;;
48052;SDS011;33824;51.600;5.718;2023-04-26T07:02:07;5.00;;;2.42;;
48052;SDS011;33824;51.600;5.718;2023-04-26T07:04:32;4.35;;;2.40;;
48052;SDS011;33824;51.600;5.718;2023-04-26T07:06:58;6.65;;;2.13;;
48052;SDS011;33824;51.600;5.718;2023-04-26T07:09:23;3.50;;;2.25;;
48052;SDS011;33824;51.600;5.718;2023-04-26T07:11:49;4.85;;;2.50;;
48052;SDS011;33824;51.600;5.718;2023-04-26T07:14:15;4.05;;;2.17;;
48052;SDS011;33824;51.600;5.718;2023-04-26T07:16:41;3.53;;;1.92;;
48052;SDS011;33824;51.600;5.718;2023-04-26T07:19:06;6.88;;;2.33;;
48052;SDS011;33824;51.600;5.718;2023-04-26T07:21:32;10.48;;;2.35;;
48052;SDS011;33824;51.600;5.718;2023-04-26T07:23:58;4.82;;;2.38;;
48052;SDS011;33824;51.600;5.718;2023-04-26T07:26:24;3.15;;;1.80;;
48052;SDS011;33824;51.600;5.718;2023-04-26T07:28:51;5.28;;;2.10;;
48052;SDS011;33824;51.600;5.718;2023-04-26T07:31:17;3.30;;;1.50;;
48052;SDS011;33824;51.600;5.718;2023-04-26T07:33:44;3.80;;;1.85;;
48052;SDS011;33824;51.600;5.718;2023-04-26T07:36:09;2.38;;;1.60;;
48052;SDS011;33824;51.600;5.718;2023-04-26T07:38:35;4.40;;;1.45;;
48052;SDS011;33824;51.600;5.718;2023-04-26T07:41:00;2.65;;;1.35;;
48052;SDS011;33824;51.600;5.718;2023-04-26T07:43:26;3.05;;;1.20;;
48052;SDS011;33824;51.600;5.718;2023-04-26T07:45:52;11.50;;;2.17;;
48052;SDS011;33824;51.600;5.718;2023-04-26T07:48:18;3.10;;;1.58;;
48052;SDS011;33824;51.600;5.718;2023-04-26T07:50:43;3.72;;;1.65;;
48052;SDS011;33824;51.600;5.718;2023-04-26T07:53:09;8.32;;;1.63;;
48052;SDS011;33824;51.600;5.718;2023-04-26T07:55:35;3.25;;;1.33;;
48052;SDS011;33824;51.600;5.718;2023-04-26T07:58:02;3.75;;;1.25;;
48052;SDS011;33824;51.600;5.718;2023-04-26T08:00:28;8.15;;;1.20;;
48052;SDS011;33824;51.600;5.718;2023-04-26T08:02:53;6.10;;;1.02;;
48052;SDS011;33824;51.600;5.718;2023-04-26T08:05:19;2.13;;;1.15;;
48052;SDS011;33824;51.600;5.718;2023-04-26T08:07:45;2.00;;;0.80;;
48052;SDS011;33824;51.600;5.718;2023-04-26T08:10:10;1.40;;;0.82;;
48052;SDS011;33824;51.600;5.718;2023-04-26T08:12:36;4.90;;;1.20;;
48052;SDS011;33824;51.600;5.718;2023-04-26T08:15:02;1.65;;;0.85;;
48052;SDS011;33824;51.600;5.718;2023-04-26T08:17:30;2.58;;;1.52;;
48052;SDS011;33824;51.600;5.718;2023-04-26T08:19:56;2.13;;;1.42;;
48052;SDS011;33824;51.600;5.718;2023-04-26T08:22:22;2.22;;;1.30;;
48052;SDS011;33824;51.600;5.718;2023-04-26T08:24:48;2.55;;;0.90;;
48052;SDS011;33824;51.600;5.718;2023-04-26T08:27:18;1.35;;;0.65;;
48052;SDS011;33824;51.600;5.718;2023-04-26T08:29:43;2.70;;;0.60;;
48052;SDS011;33824;51.600;5.718;2023-04-26T08:32:09;2.00;;;0.98;;
48052;SDS011;33824;51.600;5.718;2023-04-26T08:34:34;2.10;;;0.73;;
48052;SDS011;33824;51.600;5.718;2023-04-26T08:37:00;1.95;;;0.82;;
48052;SDS011;33824;51.600;5.718;2023-04-26T08:39:25;3.17;;;1.20;;
48052;SDS011;33824;51.600;5.718;2023-04-26T08:41:53;2.20;;;1.02;;
48052;SDS011;33824;51.600;5.718;2023-04-26T08:44:21;1.33;;;0.73;;
48052;SDS011;33824;51.600;5.718;2023-04-26T08:49:39;2.67;;;1.00;;
48052;SDS011;33824;51.600;5.718;2023-04-26T08:52:10;9.48;;;1.05;;
48052;SDS011;33824;51.600;5.718;2023-04-26T08:54:37;5.60;;;1.02;;
48052;SDS011;33824;51.600;5.718;2023-04-26T08:57:07;2.20;;;1.00;;
48052;SDS011;33824;51.600;5.718;2023-04-26T08:59:34;2.38;;;1.00;;
48052;SDS011;33824;51.600;5.718;2023-04-26T09:02:01;3.38;;;0.73;;
48052;SDS011;33824;51.600;5.718;2023-04-26T09:04:28;3.90;;;0.93;;
48052;SDS011;33824;51.600;5.718;2023-04-26T09:06:55;1.77;;;1.15;;
48052;SDS011;33824;51.600;5.718;2023-04-26T09:09:24;1.77;;;0.90;;
48052;SDS011;33824;51.600;5.718;2023-04-26T09:11:59;1.48;;;0.70;;
48052;SDS011;33824;51.600;5.718;2023-04-26T09:14:27;3.30;;;1.00;;
48052;SDS011;33824;51.600;5.718;2023-04-26T09:16:53;1.15;;;0.88;;
48052;SDS011;33824;51.600;5.718;2023-04-26T09:22:26;2.35;;;0.98;;
48052;SDS011;33824;51.600;5.718;2023-04-26T09:25:00;2.15;;;1.02;;
48052;SDS011;33824;51.600;5.718;2023-04-26T09:27:33;3.63;;;1.25;;
48052;SDS011;33824;51.600;5.718;2023-04-26T09:35:32;3.78;;;1.10;;
48052;SDS011;33824;51.600;5.718;2023-04-26T09:38:02;7.30;;;1.10;;
48052;SDS011;33824;51.600;5.718;2023-04-26T09:40:32;2.08;;;0.90;;
48052;SDS011;33824;51.600;5.718;2023-04-26T09:43:03;2.28;;;0.80;;
48052;SDS011;33824;51.600;5.718;2023-04-26T09:45:31;3.20;;;1.00;;
48052;SDS011;33824;51.600;5.718;2023-04-26T09:48:14;3.00;;;1.08;;
48052;SDS011;33824;51.600;5.718;2023-04-26T09:50:54;1.23;;;0.77;;
48052;SDS011;33824;51.600;5.718;2023-04-26T09:53:37;5.10;;;1.33;;
48052;SDS011;33824;51.600;5.718;2023-04-26T09:56:15;2.00;;;0.80;;
48052;SDS011;33824;51.600;5.718;2023-04-26T10:01:10;3.53;;;1.08;;
48052;SDS011;33824;51.600;5.718;2023-04-26T10:03:39;3.80;;;0.70;;
48052;SDS011;33824;51.600;5.718;2023-04-26T10:06:05;1.55;;;0.70;;
48052;SDS011;33824;51.600;5.718;2023-04-26T10:08:32;0.80;;;0.70;;
48052;SDS011;33824;51.600;5.718;2023-04-26T10:10:57;1.58;;;0.95;;
48052;SDS011;33824;51.600;5.718;2023-04-26T10:13:26;2.22;;;0.88;;
48052;SDS011;33824;51.600;5.718;2023-04-26T10:15:52;4.15;;;0.90;;
48052;SDS011;33824;51.600;5.718;2023-04-26T10:18:18;2.90;;;0.70;;
48052;SDS011;33824;51.600;5.718;2023-04-26T10:20:45;1.92;;;0.80;;
48052;SDS011;33824;51.600;5.718;2023-04-26T10:23:19;3.38;;;1.00;;
48052;SDS011;33824;51.600;5.718;2023-04-26T10:25:46;0.90;;;0.65;;
48052;SDS011;33824;51.600;5.718;2023-04-26T10:28:14;2.80;;;1.10;;
48052;SDS011;33824;51.600;5.718;2023-04-26T10:30:53;1.10;;;0.73;;
48052;SDS011;33824;51.600;5.718;2023-04-26T10:33:23;1.67;;;0.60;;
48052;SDS011;33824;51.600;5.718;2023-04-26T10:38:31;5.57;;;1.55;;
48052;SDS011;33824;51.600;5.718;2023-04-26T10:43:59;3.40;;;1.02;;
48052;SDS011;33824;51.600;5.718;2023-04-26T10:46:49;2.17;;;0.70;;
48052;SDS011;33824;51.600;5.718;2023-04-26T10:49:18;2.78;;;0.80;;
48052;SDS011;33824;51.600;5.718;2023-04-26T10:54:48;2.08;;;0.80;;
48052;SDS011;33824;51.600;5.718;2023-04-26T10:57:15;3.22;;;0.65;;
48052;SDS011;33824;51.600;5.718;2023-04-26T11:05:52;2.05;;;0.77;;
48052;SDS011;33824;51.600;5.718;2023-04-26T11:08:20;1.17;;;0.60;;
48052;SDS011;33824;51.600;5.718;2023-04-26T11:10:55;6.15;;;1.17;;
48052;SDS011;33824;51.600;5.718;2023-04-26T11:13:30;2.28;;;0.70;;
48052;SDS011;33824;51.600;5.718;2023-04-26T11:16:00;1.13;;;0.60;;
48052;SDS011;33824;51.600;5.718;2023-04-26T11:18:28;5.32;;;1.02;;
48052;SDS011;33824;51.600;5.718;2023-04-26T11:20:55;1.58;;;0.90;;
48052;SDS011;33824;51.600;5.718;2023-04-26T11:23:22;4.07;;;0.93;;
48052;SDS011;33824;51.600;5.718;2023-04-26T11:25:50;2.20;;;0.80;;
48052;SDS011;33824;51.600;5.718;2023-04-26T11:28:17;1.30;;;0.70;;
48052;SDS011;33824;51.600;5.718;2023-04-26T11:30:43;1.60;;;0.80;;
48052;SDS011;33824;51.600;5.718;2023-04-26T11:33:14;2.58;;;1.10;;
48052;SDS011;33824;51.600;5.718;2023-04-26T11:35:45;5.22;;;0.88;;
48052;SDS011;33824;51.600;5.718;2023-04-26T11:38:11;3.00;;;0.90;;
48052;SDS011;33824;51.600;5.718;2023-04-26T11:40:38;2.72;;;1.02;;
48052;SDS011;33824;51.600;5.718;2023-04-26T11:43:03;2.67;;;0.80;;
48052;SDS011;33824;51.600;5.718;2023-04-26T11:45:30;1.75;;;0.80;;
48052;SDS011;33824;51.600;5.718;2023-04-26T11:47:57;2.10;;;0.88;;
48052;SDS011;33824;51.600;5.718;2023-04-26T11:50:24;2.20;;;1.10;;
48052;SDS011;33824;51.600;5.718;2023-04-26T11:52:57;3.80;;;1.02;;
48052;SDS011;33824;51.600;5.718;2023-04-26T11:55:28;2.15;;;0.95;;
48052;SDS011;33824;51.600;5.718;2023-04-26T11:58:00;3.22;;;0.90;;
48052;SDS011;33824;51.600;5.718;2023-04-26T12:00:37;1.00;;;0.90;;
48052;SDS011;33824;51.600;5.718;2023-04-26T12:03:18;2.47;;;0.80;;
48052;SDS011;33824;51.600;5.718;2023-04-26T12:05:52;4.82;;;0.90;;
48052;SDS011;33824;51.600;5.718;2023-04-26T12:08:19;2.45;;;1.20;;
48052;SDS011;33824;51.600;5.718;2023-04-26T12:10:48;3.90;;;0.80;;
48052;SDS011;33824;51.600;5.718;2023-04-26T12:13:14;1.15;;;1.00;;
48052;SDS011;33824;51.600;5.718;2023-04-26T12:15:40;3.00;;;1.20;;
48052;SDS011;33824;51.600;5.718;2023-04-26T12:20:33;2.70;;;1.10;;
48052;SDS011;33824;51.600;5.718;2023-04-26T12:23:04;1.63;;;0.80;;
48052;SDS011;33824;51.600;5.718;2023-04-26T12:25:35;4.82;;;1.08;;
48052;SDS011;33824;51.600;5.718;2023-04-26T12:28:03;1.77;;;0.80;;
48052;SDS011;33824;51.600;5.718;2023-04-26T12:30:30;2.03;;;0.77;;
48052;SDS011;33824;51.600;5.718;2023-04-26T12:32:56;1.90;;;0.68;;
48052;SDS011;33824;51.600;5.718;2023-04-26T12:35:22;4.43;;;1.10;;
48052;SDS011;33824;51.600;5.718;2023-04-26T12:37:48;2.55;;;0.70;;
48052;SDS011;33824;51.600;5.718;2023-04-26T12:40:17;1.52;;;0.70;;
48052;SDS011;33824;51.600;5.718;2023-04-26T12:42:47;3.67;;;0.98;;
48052;SDS011;33824;51.600;5.718;2023-04-26T12:45:14;1.98;;;1.02;;
48052;SDS011;33824;51.600;5.718;2023-04-26T12:47:39;1.48;;;0.95;;
48052;SDS011;33824;51.600;5.718;2023-04-26T12:50:05;2.65;;;1.20;;
48052;SDS011;33824;51.600;5.718;2023-04-26T12:52:31;3.38;;;1.02;;
48052;SDS011;33824;51.600;5.718;2023-04-26T12:54:57;2.00;;;1.17;;
48052;SDS011;33824;51.600;5.718;2023-04-26T12:57:22;2.65;;;1.42;;
48052;SDS011;33824;51.600;5.718;2023-04-26T12:59:49;2.00;;;1.10;;
48052;SDS011;33824;51.600;5.718;2023-04-26T13:02:14;2.35;;;1.30;;
48052;SDS011;33824;51.600;5.718;2023-04-26T13:04:40;3.03;;;1.30;;
48052;SDS011;33824;51.600;5.718;2023-04-26T13:07:06;2.88;;;1.40;;
48052;SDS011;33824;51.600;5.718;2023-04-26T13:09:32;3.03;;;1.20;;
48052;SDS011;33824;51.600;5.718;2023-04-26T13:11:58;1.63;;;1.17;;
48052;SDS011;33824;51.600;5.718;2023-04-26T13:14:23;5.07;;;1.30;;
48052;SDS011;33824;51.600;5.718;2023-04-26T13:16:49;4.47;;;1.73;;
48052;SDS011;33824;51.600;5.718;2023-04-26T13:19:16;2.08;;;1.08;;
48052;SDS011;33824;51.600;5.718;2023-04-26T13:21:42;3.03;;;1.35;;
48052;SDS011;33824;51.600;5.718;2023-04-26T13:24:08;4.03;;;1.40;;
48052;SDS011;33824;51.600;5.718;2023-04-26T13:26:33;14.27;;;3.88;;
48052;SDS011;33824;51.600;5.718;2023-04-26T13:28:59;5.80;;;1.92;;
48052;SDS011;33824;51.600;5.718;2023-04-26T13:31:24;3.05;;;1.50;;
48052;SDS011;33824;51.600;5.718;2023-04-26T13:33:50;3.10;;;1.50;;
48052;SDS011;33824;51.600;5.718;2023-04-26T13:36:15;5.63;;;1.80;;
48052;SDS011;33824;51.600;5.718;2023-04-26T13:38:41;11.73;;;1.80;;
48052;SDS011;33824;51.600;5.718;2023-04-26T13:41:07;4.07;;;1.77;;
48052;SDS011;33824;51.600;5.718;2023-04-26T13:43:33;3.75;;;1.40;;
48052;SDS011;33824;51.600;5.718;2023-04-26T13:45:59;4.60;;;1.48;;
48052;SDS011;33824;51.600;5.718;2023-04-26T13:48:26;4.60;;;1.02;;
48052;SDS011;33824;51.600;5.718;2023-04-26T13:50:52;7.32;;;1.75;;
48052;SDS011;33824;51.600;5.718;2023-04-26T13:53:18;2.50;;;1.27;;
48052;SDS011;33824;51.600;5.718;2023-04-26T13:55:46;4.15;;;1.50;;
48052;SDS011;33824;51.600;5.718;2023-04-26T13:58:12;4.72;;;1.90;;
48052;SDS011;33824;51.600;5.718;2023-04-26T14:00:38;3.03;;;1.30;;
48052;SDS011;33824;51.600;5.718;2023-04-26T14:03:03;2.15;;;1.23;;
48052;SDS011;33824;51.600;5.718;2023-04-26T14:05:29;3.72;;;1.67;;
48052;SDS011;33824;51.600;5.718;2023-04-26T14:07:55;2.83;;;1.83;;
48052;SDS011;33824;51.600;5.718;2023-04-26T14:10:21;2.88;;;1.20;;
48052;SDS011;33824;51.600;5.718;2023-04-26T14:12:47;3.08;;;1.40;;
48052;SDS011;33824;51.600;5.718;2023-04-26T14:15:12;6.47;;;1.38;;
48052;SDS011;33824;51.600;5.718;2023-04-26T14:17:38;4.25;;;1.90;;
48052;SDS011;33824;51.600;5.718;2023-04-26T14:20:04;2.08;;;1.30;;
48052;SDS011;33824;51.600;5.718;2023-04-26T14:22:30;3.13;;;1.42;;
48052;SDS011;33824;51.600;5.718;2023-04-26T14:24:55;2.95;;;1.27;;
48052;SDS011;33824;51.600;5.718;2023-04-26T14:27:21;3.72;;;1.38;;
48052;SDS011;33824;51.600;5.718;2023-04-26T14:29:46;2.03;;;1.10;;
48052;SDS011;33824;51.600;5.718;2023-04-26T14:32:12;2.50;;;1.48;;
48052;SDS011;33824;51.600;5.718;2023-04-26T14:34:37;3.15;;;1.77;;
48052;SDS011;33824;51.600;5.718;2023-04-26T14:37:04;3.30;;;1.65;;
48052;SDS011;33824;51.600;5.718;2023-04-26T14:39:33;5.88;;;1.83;;
48052;SDS011;33824;51.600;5.718;2023-04-26T14:41:59;3.05;;;1.40;;
48052;SDS011;33824;51.600;5.718;2023-04-26T14:44:25;4.28;;;1.83;;
48052;SDS011;33824;51.600;5.718;2023-04-26T14:46:52;2.92;;;1.55;;
48052;SDS011;33824;51.600;5.718;2023-04-26T14:49:17;3.15;;;1.55;;
48052;SDS011;33824;51.600;5.718;2023-04-26T14:51:43;3.53;;;1.55;;
48052;SDS011;33824;51.600;5.718;2023-04-26T14:54:09;5.45;;;1.45;;
48052;SDS011;33824;51.600;5.718;2023-04-26T14:56:34;7.47;;;1.27;;
48052;SDS011;33824;51.600;5.718;2023-04-26T14:59:01;2.20;;;1.13;;
48052;SDS011;33824;51.600;5.718;2023-04-26T15:01:30;4.07;;;1.70;;
48052;SDS011;33824;51.600;5.718;2023-04-26T15:03:56;6.10;;;2.00;;
48052;SDS011;33824;51.600;5.718;2023-04-26T15:06:22;2.92;;;1.50;;
48052;SDS011;33824;51.600;5.718;2023-04-26T15:08:48;2.83;;;1.70;;
48052;SDS011;33824;51.600;5.718;2023-04-26T15:11:14;2.92;;;1.80;;
48052;SDS011;33824;51.600;5.718;2023-04-26T15:13:40;3.70;;;1.95;;
48052;SDS011;33824;51.600;5.718;2023-04-26T15:16:05;4.60;;;1.70;;